EJU1713 LFMN-LEMD
Flight info
| Callsign | EJU1713 |
|---|---|
| Flight time | 1h 34m |
| Altitude | 36000 |
| Route | EPOLO DCT SOFFY/N0445F370 DCT NILDU DCT NENDA DCT BCN DCT ANTON DCT XIKEN DCT OSLAP DCT SALAS DCT RAMON DCT NEXAS DCT DISVU DCT ADUXO |
| Aircraft | A320/M-SDE2E3FGHIJ1RWXYZ/LB1 |
Departure
| Time | 2026-05-04 12:53 |
|---|---|
| Airport | Nice-Côte d'Azur Airport (LFMN) |
Arrival
| Time | 2026-05-04 14:27 |
|---|---|
| Airport | Adolfo Suárez Madrid–Barajas Airport (LEMD) |
| Time | Latitude | Longitude | Altitude | Speed | Heading |
|---|---|---|---|---|---|
| 2026-05-04 12:41 | 43.66227 | 7.20666 | 21 ft | 0 kts | 261° |
| 2026-05-04 12:43 | 43.66227 | 7.20668 | 22 ft | 2 kts | 261° |
| 2026-05-04 12:43 | 43.66231 | 7.20703 | 25 ft | 4 kts | 261° |
| 2026-05-04 12:44 | 43.66235 | 7.20733 | 23 ft | 4 kts | 250° |
| 2026-05-04 12:44 | 43.66249 | 7.20758 | 23 ft | 4 kts | 190° |
| 2026-05-04 12:44 | 43.66273 | 7.20757 | 21 ft | 3 kts | 171° |
| 2026-05-04 12:44 | 43.66276 | 7.20756 | 22 ft | 0 kts | 171° |
| 2026-05-04 12:46 | 43.66272 | 7.20757 | 21 ft | 2 kts | 171° |
| 2026-05-04 12:46 | 43.66250 | 7.20762 | 22 ft | 5 kts | 171° |
| 2026-05-04 12:47 | 43.66202 | 7.20773 | 21 ft | 9 kts | 170° |
| 2026-05-04 12:47 | 43.66125 | 7.20791 | 21 ft | 13 kts | 171° |
| 2026-05-04 12:47 | 43.66028 | 7.20812 | 21 ft | 15 kts | 171° |
| 2026-05-04 12:47 | 43.65915 | 7.20838 | 21 ft | 17 kts | 170° |
| 2026-05-04 12:48 | 43.65801 | 7.20863 | 21 ft | 15 kts | 171° |
| 2026-05-04 12:48 | 43.65713 | 7.20815 | 21 ft | 16 kts | 225° |
| 2026-05-04 12:48 | 43.65627 | 7.20696 | 21 ft | 19 kts | 225° |
| 2026-05-04 12:48 | 43.65527 | 7.20559 | 21 ft | 21 kts | 223° |
| 2026-05-04 12:49 | 43.65426 | 7.20422 | 21 ft | 19 kts | 225° |
| 2026-05-04 12:49 | 43.65335 | 7.20301 | 21 ft | 16 kts | 212° |
| 2026-05-04 12:49 | 43.65243 | 7.20339 | 21 ft | 15 kts | 135° |
| 2026-05-04 12:49 | 43.65166 | 7.20445 | 21 ft | 16 kts | 135° |
| 2026-05-04 12:50 | 43.65065 | 7.20511 | 21 ft | 17 kts | 182° |
| 2026-05-04 12:50 | 43.64970 | 7.20433 | 22 ft | 15 kts | 225° |
| 2026-05-04 12:50 | 43.64904 | 7.20343 | 22 ft | 10 kts | 225° |
| 2026-05-04 12:50 | 43.64858 | 7.20281 | 21 ft | 9 kts | 222° |
| 2026-05-04 12:51 | 43.64811 | 7.20263 | 22 ft | 6 kts | 170° |
| 2026-05-04 12:51 | 43.64787 | 7.20289 | 24 ft | 6 kts | 133° |
| 2026-05-04 12:51 | 43.64756 | 7.20334 | 23 ft | 7 kts | 132° |
| 2026-05-04 12:51 | 43.64772 | 7.20387 | 24 ft | 7 kts | 44° |
| 2026-05-04 12:52 | 43.64814 | 7.20444 | 24 ft | 21 kts | 44° |
| 2026-05-04 12:52 | 43.65096 | 7.20832 | 22 ft | 90 kts | 44° |
| 2026-05-04 12:52 | 43.65673 | 7.21628 | 28 ft | 142 kts | 45° |
| 2026-05-04 12:52 | 43.66394 | 7.22625 | 551 ft | 145 kts | 43° |
| 2026-05-04 12:53 | 43.66867 | 7.23823 | 1201 ft | 146 kts | 82° |
| 2026-05-04 12:53 | 43.66711 | 7.25183 | 1860 ft | 147 kts | 118° |
| 2026-05-04 12:53 | 43.65992 | 7.26192 | 2480 ft | 150 kts | 138° |
| 2026-05-04 12:53 | 43.65205 | 7.27145 | 3060 ft | 151 kts | 132° |
| 2026-05-04 12:54 | 43.64423 | 7.28182 | 3461 ft | 165 kts | 132° |
| 2026-05-04 12:54 | 43.63546 | 7.29355 | 3728 ft | 186 kts | 133° |
| 2026-05-04 12:54 | 43.62556 | 7.30672 | 3965 ft | 208 kts | 133° |
| 2026-05-04 12:54 | 43.61485 | 7.32081 | 4416 ft | 216 kts | 134° |
| 2026-05-04 12:55 | 43.60261 | 7.33205 | 5068 ft | 224 kts | 162° |
| 2026-05-04 12:55 | 43.58708 | 7.33104 | 5869 ft | 231 kts | 201° |
| 2026-05-04 12:55 | 43.57328 | 7.31965 | 6731 ft | 231 kts | 210° |
| 2026-05-04 12:55 | 43.55997 | 7.30741 | 7582 ft | 229 kts | 211° |
| 2026-05-04 12:56 | 43.54678 | 7.29516 | 8406 ft | 228 kts | 211° |
| 2026-05-04 12:56 | 43.53359 | 7.28293 | 9251 ft | 228 kts | 211° |
| 2026-05-04 12:56 | 43.52073 | 7.26961 | 9897 ft | 242 kts | 225° |
| 2026-05-04 12:56 | 43.51199 | 7.24812 | 10050 ft | 275 kts | 248° |
| 2026-05-04 12:57 | 43.50565 | 7.22148 | 10081 ft | 308 kts | 249° |
| 2026-05-04 12:57 | 43.49914 | 7.19224 | 10380 ft | 330 kts | 250° |
| 2026-05-04 12:57 | 43.49236 | 7.16131 | 10969 ft | 342 kts | 250° |
| 2026-05-04 12:57 | 43.48545 | 7.12981 | 11746 ft | 346 kts | 250° |
| 2026-05-04 12:58 | 43.47848 | 7.09848 | 12547 ft | 348 kts | 250° |
| 2026-05-04 12:58 | 43.47128 | 7.06649 | 13360 ft | 351 kts | 250° |
| 2026-05-04 12:58 | 43.46396 | 7.03426 | 14103 ft | 354 kts | 250° |
| 2026-05-04 12:58 | 43.45650 | 7.00176 | 14792 ft | 358 kts | 250° |
| 2026-05-04 12:59 | 43.44892 | 6.96898 | 15478 ft | 361 kts | 250° |
| 2026-05-04 12:59 | 43.44124 | 6.93593 | 16145 ft | 364 kts | 250° |
| 2026-05-04 12:59 | 43.43351 | 6.90263 | 16779 ft | 368 kts | 250° |
| 2026-05-04 12:59 | 43.42574 | 6.86894 | 17391 ft | 371 kts | 250° |
| 2026-05-04 13:00 | 43.41791 | 6.83505 | 18021 ft | 374 kts | 250° |
| 2026-05-04 13:00 | 43.41004 | 6.80086 | 18598 ft | 376 kts | 250° |
| 2026-05-04 13:00 | 43.40209 | 6.76649 | 19101 ft | 378 kts | 250° |
| 2026-05-04 13:00 | 43.39405 | 6.73189 | 19634 ft | 381 kts | 250° |
| 2026-05-04 13:01 | 43.38595 | 6.69711 | 20133 ft | 383 kts | 250° |
| 2026-05-04 13:01 | 43.37779 | 6.66217 | 20653 ft | 385 kts | 250° |
| 2026-05-04 13:01 | 43.36960 | 6.62705 | 21138 ft | 387 kts | 251° |
| 2026-05-04 13:01 | 43.36135 | 6.59175 | 21635 ft | 389 kts | 251° |
| 2026-05-04 13:02 | 43.35304 | 6.55627 | 22124 ft | 391 kts | 251° |
| 2026-05-04 13:02 | 43.34468 | 6.52062 | 22632 ft | 393 kts | 251° |
| 2026-05-04 13:02 | 43.33626 | 6.48476 | 23127 ft | 396 kts | 251° |
| 2026-05-04 13:02 | 43.32778 | 6.44870 | 23609 ft | 398 kts | 251° |
| 2026-05-04 13:03 | 43.32204 | 6.42430 | 23873 ft | 399 kts | 251° |
| 2026-05-04 13:03 | 43.31345 | 6.38801 | 24269 ft | 400 kts | 251° |
| 2026-05-04 13:03 | 43.30483 | 6.35167 | 24675 ft | 401 kts | 251° |
| 2026-05-04 13:03 | 43.29617 | 6.31527 | 25090 ft | 401 kts | 251° |
| 2026-05-04 13:04 | 43.28752 | 6.27890 | 25493 ft | 401 kts | 251° |
| 2026-05-04 13:04 | 43.27888 | 6.24242 | 25889 ft | 403 kts | 251° |
| 2026-05-04 13:04 | 43.27024 | 6.20588 | 26299 ft | 403 kts | 251° |
| 2026-05-04 13:04 | 43.26156 | 6.16928 | 26710 ft | 404 kts | 251° |
| 2026-05-04 13:05 | 43.25279 | 6.13266 | 27113 ft | 404 kts | 251° |
| 2026-05-04 13:05 | 43.24397 | 6.09604 | 27471 ft | 404 kts | 251° |
| 2026-05-04 13:05 | 43.23519 | 6.05939 | 27814 ft | 407 kts | 250° |
| 2026-05-04 13:05 | 43.22646 | 6.02301 | 28185 ft | 407 kts | 251° |
| 2026-05-04 13:06 | 43.21762 | 5.98605 | 28583 ft | 408 kts | 250° |
| 2026-05-04 13:06 | 43.20869 | 5.94852 | 28971 ft | 409 kts | 250° |
| 2026-05-04 13:06 | 43.19975 | 5.91147 | 29326 ft | 410 kts | 250° |
| 2026-05-04 13:06 | 43.19077 | 5.87445 | 29688 ft | 407 kts | 250° |
| 2026-05-04 13:07 | 43.18177 | 5.83756 | 30093 ft | 410 kts | 250° |
| 2026-05-04 13:07 | 43.17288 | 5.80055 | 30559 ft | 408 kts | 250° |
| 2026-05-04 13:07 | 43.16407 | 5.76397 | 31017 ft | 400 kts | 250° |
| 2026-05-04 13:07 | 43.15532 | 5.72795 | 31278 ft | 398 kts | 250° |
| 2026-05-04 13:08 | 43.14650 | 5.69198 | 31513 ft | 399 kts | 250° |
| 2026-05-04 13:08 | 43.13768 | 5.65606 | 31823 ft | 397 kts | 250° |
| 2026-05-04 13:08 | 43.12888 | 5.62019 | 32151 ft | 397 kts | 250° |
| 2026-05-04 13:08 | 43.12013 | 5.58444 | 32499 ft | 396 kts | 250° |
| 2026-05-04 13:09 | 43.11138 | 5.54879 | 32866 ft | 394 kts | 250° |
| 2026-05-04 13:09 | 43.10264 | 5.51329 | 33212 ft | 393 kts | 250° |
| 2026-05-04 13:09 | 43.09392 | 5.47796 | 33556 ft | 391 kts | 250° |
| 2026-05-04 13:09 | 43.08526 | 5.44272 | 33901 ft | 390 kts | 250° |
| 2026-05-04 13:10 | 43.07690 | 5.40863 | 34205 ft | 389 kts | 250° |
| 2026-05-04 13:10 | 43.06830 | 5.37357 | 34505 ft | 389 kts | 250° |
| 2026-05-04 13:10 | 43.05969 | 5.33854 | 34787 ft | 388 kts | 250° |
| 2026-05-04 13:10 | 43.05106 | 5.30369 | 35063 ft | 387 kts | 249° |
| 2026-05-04 13:11 | 43.04238 | 5.26883 | 35350 ft | 386 kts | 249° |
| 2026-05-04 13:11 | 43.03374 | 5.23411 | 35605 ft | 386 kts | 249° |
| 2026-05-04 13:11 | 43.02466 | 5.19946 | 35732 ft | 388 kts | 245° |
| 2026-05-04 13:11 | 43.01216 | 5.16677 | 35870 ft | 389 kts | 237° |
| 2026-05-04 13:12 | 42.99627 | 5.13669 | 35988 ft | 390 kts | 233° |
| 2026-05-04 13:12 | 42.96378 | 5.07783 | 36006 ft | 387 kts | 234° |
| 2026-05-04 13:13 | 42.93144 | 5.01909 | 36005 ft | 387 kts | 234° |
| 2026-05-04 13:13 | 42.89906 | 4.96050 | 36000 ft | 387 kts | 233° |
| 2026-05-04 13:14 | 42.86661 | 4.90204 | 35997 ft | 387 kts | 233° |
| 2026-05-04 13:14 | 42.83413 | 4.84363 | 35991 ft | 387 kts | 233° |
| 2026-05-04 13:15 | 42.80167 | 4.78523 | 35985 ft | 387 kts | 233° |
| 2026-05-04 13:15 | 42.76923 | 4.72690 | 35984 ft | 387 kts | 233° |
| 2026-05-04 13:16 | 42.73666 | 4.66858 | 35978 ft | 387 kts | 233° |
| 2026-05-04 13:16 | 42.70389 | 4.61001 | 36131 ft | 392 kts | 233° |
| 2026-05-04 13:16 | 42.68734 | 4.58054 | 36326 ft | 392 kts | 233° |
| 2026-05-04 13:17 | 42.67081 | 4.55108 | 36535 ft | 392 kts | 233° |
| 2026-05-04 13:17 | 42.65428 | 4.52166 | 36745 ft | 391 kts | 233° |
| 2026-05-04 13:17 | 42.63774 | 4.49225 | 36936 ft | 392 kts | 233° |
| 2026-05-04 13:18 | 42.60473 | 4.43355 | 36970 ft | 391 kts | 233° |
| 2026-05-04 13:18 | 42.57173 | 4.37502 | 36968 ft | 390 kts | 233° |
| 2026-05-04 13:19 | 42.53871 | 4.31668 | 36965 ft | 390 kts | 233° |
| 2026-05-04 13:19 | 42.50567 | 4.25840 | 36961 ft | 389 kts | 233° |
| 2026-05-04 13:20 | 42.47268 | 4.20026 | 36962 ft | 389 kts | 233° |
| 2026-05-04 13:20 | 42.43964 | 4.14215 | 36958 ft | 390 kts | 233° |
| 2026-05-04 13:21 | 42.40656 | 4.08408 | 36959 ft | 390 kts | 232° |
| 2026-05-04 13:21 | 42.37361 | 4.02642 | 36957 ft | 390 kts | 232° |
| 2026-05-04 13:22 | 42.34046 | 3.96840 | 36958 ft | 390 kts | 232° |
| 2026-05-04 13:22 | 42.30728 | 3.91043 | 36958 ft | 390 kts | 232° |
| 2026-05-04 13:23 | 42.27401 | 3.85263 | 36953 ft | 390 kts | 232° |
| 2026-05-04 13:23 | 42.24121 | 3.79435 | 36955 ft | 390 kts | 234° |
| 2026-05-04 13:24 | 42.21002 | 3.73452 | 36957 ft | 390 kts | 235° |
| 2026-05-04 13:24 | 42.17904 | 3.67445 | 36955 ft | 390 kts | 235° |
| 2026-05-04 13:25 | 42.13193 | 3.58499 | 36951 ft | 390 kts | 234° |
| 2026-05-04 13:25 | 42.10029 | 3.52553 | 36951 ft | 391 kts | 234° |
| 2026-05-04 13:26 | 42.06866 | 3.46602 | 36945 ft | 391 kts | 234° |
| 2026-05-04 13:26 | 42.03703 | 3.40657 | 36940 ft | 391 kts | 234° |
| 2026-05-04 13:27 | 42.00532 | 3.34706 | 36941 ft | 391 kts | 234° |
| 2026-05-04 13:27 | 41.97358 | 3.28762 | 36937 ft | 392 kts | 234° |
| 2026-05-04 13:28 | 41.94185 | 3.22814 | 36941 ft | 392 kts | 234° |
| 2026-05-04 13:28 | 41.91006 | 3.16880 | 36948 ft | 391 kts | 234° |
| 2026-05-04 13:29 | 41.87818 | 3.10960 | 36948 ft | 391 kts | 234° |
| 2026-05-04 13:29 | 41.84636 | 3.05050 | 36954 ft | 391 kts | 234° |
| 2026-05-04 13:30 | 41.81452 | 2.99148 | 36958 ft | 391 kts | 234° |
| 2026-05-04 13:30 | 41.78266 | 2.93252 | 36960 ft | 390 kts | 234° |
| 2026-05-04 13:31 | 41.75074 | 2.87359 | 36959 ft | 390 kts | 234° |
| 2026-05-04 13:31 | 41.71884 | 2.81481 | 36963 ft | 390 kts | 234° |
| 2026-05-04 13:32 | 41.68816 | 2.75486 | 36963 ft | 391 kts | 242° |
| 2026-05-04 13:32 | 41.67097 | 2.68582 | 36961 ft | 393 kts | 251° |
| 2026-05-04 13:33 | 41.65638 | 2.61541 | 36958 ft | 393 kts | 251° |
| 2026-05-04 13:33 | 41.64160 | 2.54502 | 36966 ft | 393 kts | 251° |
| 2026-05-04 13:34 | 41.62680 | 2.47472 | 36959 ft | 393 kts | 251° |
| 2026-05-04 13:34 | 41.61201 | 2.40446 | 36962 ft | 393 kts | 251° |
| 2026-05-04 13:35 | 41.58979 | 2.29927 | 36959 ft | 392 kts | 251° |
| 2026-05-04 13:36 | 41.57498 | 2.22920 | 36954 ft | 392 kts | 251° |
| 2026-05-04 13:36 | 41.56008 | 2.15924 | 36953 ft | 392 kts | 250° |
| 2026-05-04 13:37 | 41.54513 | 2.08915 | 36957 ft | 393 kts | 250° |
| 2026-05-04 13:37 | 41.53016 | 2.01906 | 36952 ft | 392 kts | 250° |
| 2026-05-04 13:38 | 41.51514 | 1.94918 | 36971 ft | 392 kts | 250° |
| 2026-05-04 13:38 | 41.50007 | 1.87918 | 36960 ft | 393 kts | 250° |
| 2026-05-04 13:39 | 41.48494 | 1.80907 | 36954 ft | 393 kts | 250° |
| 2026-05-04 13:39 | 41.46972 | 1.73901 | 36946 ft | 394 kts | 250° |
| 2026-05-04 13:40 | 41.45467 | 1.66993 | 36936 ft | 394 kts | 250° |
| 2026-05-04 13:40 | 41.43941 | 1.59973 | 36931 ft | 395 kts | 250° |
| 2026-05-04 13:41 | 41.42402 | 1.52948 | 36929 ft | 395 kts | 250° |
| 2026-05-04 13:41 | 41.40848 | 1.45918 | 36929 ft | 396 kts | 250° |
| 2026-05-04 13:42 | 41.38518 | 1.35348 | 36937 ft | 397 kts | 250° |
| 2026-05-04 13:42 | 41.36954 | 1.28294 | 36941 ft | 397 kts | 250° |
| 2026-05-04 13:43 | 41.35653 | 1.22429 | 36941 ft | 398 kts | 250° |
| 2026-05-04 13:43 | 41.34083 | 1.15371 | 36941 ft | 398 kts | 250° |
| 2026-05-04 13:44 | 41.32506 | 1.08307 | 36940 ft | 398 kts | 250° |
| 2026-05-04 13:44 | 41.30922 | 1.01236 | 36944 ft | 399 kts | 250° |
| 2026-05-04 13:45 | 41.29329 | 0.94174 | 36933 ft | 399 kts | 250° |
| 2026-05-04 13:45 | 41.27735 | 0.87105 | 36929 ft | 399 kts | 250° |
| 2026-05-04 13:46 | 41.26139 | 0.80023 | 36930 ft | 400 kts | 250° |
| 2026-05-04 13:46 | 41.24530 | 0.72953 | 36922 ft | 400 kts | 250° |
| 2026-05-04 13:47 | 41.22913 | 0.65885 | 36922 ft | 400 kts | 250° |
| 2026-05-04 13:47 | 41.21296 | 0.58807 | 36927 ft | 400 kts | 250° |
| 2026-05-04 13:48 | 41.19680 | 0.51728 | 36924 ft | 400 kts | 250° |
| 2026-05-04 13:48 | 41.18051 | 0.44661 | 36923 ft | 401 kts | 250° |
| 2026-05-04 13:49 | 41.16418 | 0.37589 | 36927 ft | 401 kts | 250° |
| 2026-05-04 13:49 | 41.14784 | 0.30530 | 36920 ft | 400 kts | 249° |
| 2026-05-04 13:50 | 41.13147 | 0.23476 | 36923 ft | 400 kts | 250° |
| 2026-05-04 13:50 | 41.11506 | 0.16423 | 36923 ft | 400 kts | 250° |
| 2026-05-04 13:51 | 41.09856 | 0.09366 | 36920 ft | 401 kts | 250° |
| 2026-05-04 13:51 | 41.08204 | 0.02313 | 36921 ft | 401 kts | 250° |
| 2026-05-04 13:52 | 41.05728 | -0.08232 | 36924 ft | 400 kts | 250° |
| 2026-05-04 13:53 | 41.04064 | -0.15273 | 36916 ft | 401 kts | 250° |
| 2026-05-04 13:53 | 41.02392 | -0.22316 | 36921 ft | 401 kts | 250° |
| 2026-05-04 13:54 | 40.99829 | -0.32837 | 36918 ft | 400 kts | 248° |
| 2026-05-04 13:55 | 40.97005 | -0.43110 | 36925 ft | 400 kts | 247° |
| 2026-05-04 13:55 | 40.94150 | -0.53507 | 36934 ft | 401 kts | 248° |
| 2026-05-04 13:56 | 40.92259 | -0.60456 | 36922 ft | 402 kts | 248° |
| 2026-05-04 13:57 | 40.89421 | -0.70883 | 36925 ft | 402 kts | 248° |
| 2026-05-04 13:58 | 40.85597 | -0.84800 | 36945 ft | 404 kts | 248° |
| 2026-05-04 13:58 | 40.82701 | -0.95235 | 36942 ft | 403 kts | 248° |
| 2026-05-04 13:59 | 40.80765 | -1.02195 | 36945 ft | 404 kts | 248° |
| 2026-05-04 14:00 | 40.77853 | -1.12636 | 36954 ft | 405 kts | 248° |
| 2026-05-04 14:00 | 40.74937 | -1.23096 | 36961 ft | 405 kts | 248° |
| 2026-05-04 14:01 | 40.72982 | -1.30067 | 36968 ft | 405 kts | 248° |
| 2026-05-04 14:02 | 40.70042 | -1.40518 | 36970 ft | 405 kts | 248° |
| 2026-05-04 14:02 | 40.68083 | -1.47478 | 36984 ft | 405 kts | 248° |
| 2026-05-04 14:02 | 40.67112 | -1.50933 | 36698 ft | 400 kts | 249° |
| 2026-05-04 14:03 | 40.66537 | -1.54498 | 36331 ft | 401 kts | 263° |
| 2026-05-04 14:03 | 40.66476 | -1.61880 | 35844 ft | 403 kts | 265° |
| 2026-05-04 14:03 | 40.66464 | -1.65574 | 35606 ft | 403 kts | 265° |
| 2026-05-04 14:04 | 40.66450 | -1.72950 | 35097 ft | 402 kts | 265° |
| 2026-05-04 14:04 | 40.66443 | -1.76640 | 34380 ft | 404 kts | 265° |
| 2026-05-04 14:04 | 40.66433 | -1.80349 | 33521 ft | 406 kts | 265° |
| 2026-05-04 14:05 | 40.66401 | -1.87795 | 31797 ft | 408 kts | 265° |
| 2026-05-04 14:05 | 40.66378 | -1.91545 | 30911 ft | 411 kts | 265° |
| 2026-05-04 14:05 | 40.66359 | -1.95292 | 30373 ft | 405 kts | 265° |
| 2026-05-04 14:06 | 40.66346 | -1.98978 | 29743 ft | 400 kts | 265° |
| 2026-05-04 14:06 | 40.66329 | -2.02617 | 29138 ft | 395 kts | 265° |
| 2026-05-04 14:06 | 40.66309 | -2.06208 | 28569 ft | 389 kts | 265° |
| 2026-05-04 14:06 | 40.66293 | -2.09747 | 28016 ft | 384 kts | 265° |
| 2026-05-04 14:07 | 40.66276 | -2.13240 | 27464 ft | 379 kts | 266° |
| 2026-05-04 14:07 | 40.66259 | -2.16687 | 26911 ft | 375 kts | 266° |
| 2026-05-04 14:07 | 40.66239 | -2.20097 | 26391 ft | 370 kts | 266° |
| 2026-05-04 14:07 | 40.66213 | -2.23466 | 25863 ft | 366 kts | 266° |
| 2026-05-04 14:08 | 40.66185 | -2.26800 | 25341 ft | 363 kts | 266° |
| 2026-05-04 14:08 | 40.66155 | -2.30100 | 24827 ft | 359 kts | 266° |
| 2026-05-04 14:08 | 40.66125 | -2.33374 | 24327 ft | 356 kts | 266° |
| 2026-05-04 14:08 | 40.66097 | -2.36583 | 23842 ft | 353 kts | 267° |
| 2026-05-04 14:09 | 40.66038 | -2.42999 | 22839 ft | 346 kts | 267° |
| 2026-05-04 14:09 | 40.66010 | -2.46144 | 22412 ft | 342 kts | 267° |
| 2026-05-04 14:10 | 40.65958 | -2.52279 | 21592 ft | 338 kts | 268° |
| 2026-05-04 14:10 | 40.65926 | -2.55360 | 21190 ft | 336 kts | 268° |
| 2026-05-04 14:10 | 40.65892 | -2.58387 | 20791 ft | 334 kts | 268° |
| 2026-05-04 14:10 | 40.65858 | -2.61435 | 20383 ft | 332 kts | 268° |
| 2026-05-04 14:11 | 40.65825 | -2.64473 | 19991 ft | 330 kts | 268° |
| 2026-05-04 14:11 | 40.65768 | -2.70312 | 19723 ft | 307 kts | 268° |
| 2026-05-04 14:11 | 40.65740 | -2.73073 | 19597 ft | 297 kts | 268° |
| 2026-05-04 14:12 | 40.65709 | -2.75776 | 19501 ft | 302 kts | 268° |
| 2026-05-04 14:12 | 40.65670 | -2.78667 | 19397 ft | 329 kts | 268° |
| 2026-05-04 14:12 | 40.66909 | -2.84575 | 18750 ft | 348 kts | 297° |
| 2026-05-04 14:13 | 40.68163 | -2.87301 | 18234 ft | 348 kts | 298° |
| 2026-05-04 14:13 | 40.69434 | -2.90008 | 17698 ft | 347 kts | 298° |
| 2026-05-04 14:13 | 40.70704 | -2.92702 | 17205 ft | 345 kts | 298° |
| 2026-05-04 14:13 | 40.71961 | -2.95384 | 16710 ft | 343 kts | 298° |
| 2026-05-04 14:14 | 40.73205 | -2.98059 | 16223 ft | 341 kts | 298° |
| 2026-05-04 14:14 | 40.75658 | -3.03383 | 15248 ft | 339 kts | 298° |
| 2026-05-04 14:14 | 40.76868 | -3.06024 | 14970 ft | 334 kts | 298° |
| 2026-05-04 14:15 | 40.79268 | -3.11276 | 14529 ft | 338 kts | 298° |
| 2026-05-04 14:15 | 40.81685 | -3.16563 | 13809 ft | 330 kts | 298° |
| 2026-05-04 14:16 | 40.84033 | -3.21702 | 12936 ft | 325 kts | 298° |
| 2026-05-04 14:16 | 40.85196 | -3.24250 | 12482 ft | 323 kts | 299° |
| 2026-05-04 14:17 | 40.87482 | -3.29240 | 11856 ft | 302 kts | 299° |
| 2026-05-04 14:17 | 40.88538 | -3.31544 | 11550 ft | 287 kts | 298° |
| 2026-05-04 14:17 | 40.90557 | -3.35975 | 10414 ft | 278 kts | 298° |
| 2026-05-04 14:18 | 40.91422 | -3.38237 | 9863 ft | 275 kts | 285° |
| 2026-05-04 14:18 | 40.92233 | -3.43116 | 8959 ft | 270 kts | 281° |
| 2026-05-04 14:19 | 40.92169 | -3.47986 | 8047 ft | 266 kts | 260° |
| 2026-05-04 14:19 | 40.91709 | -3.50326 | 7828 ft | 264 kts | 245° |
| 2026-05-04 14:19 | 40.90645 | -3.52308 | 7737 ft | 268 kts | 224° |
| 2026-05-04 14:19 | 40.89108 | -3.53713 | 7643 ft | 270 kts | 213° |
| 2026-05-04 14:20 | 40.87500 | -3.55011 | 7544 ft | 271 kts | 214° |
| 2026-05-04 14:20 | 40.85896 | -3.56309 | 7461 ft | 267 kts | 213° |
| 2026-05-04 14:20 | 40.84283 | -3.57393 | 7374 ft | 256 kts | 199° |
| 2026-05-04 14:21 | 40.80855 | -3.57672 | 7203 ft | 238 kts | 182° |
| 2026-05-04 14:21 | 40.79228 | -3.57636 | 7118 ft | 229 kts | 183° |
| 2026-05-04 14:21 | 40.77654 | -3.57623 | 6942 ft | 225 kts | 183° |
| 2026-05-04 14:21 | 40.76121 | -3.57614 | 6682 ft | 214 kts | 183° |
| 2026-05-04 14:22 | 40.74671 | -3.57606 | 6410 ft | 204 kts | 183° |
| 2026-05-04 14:22 | 40.73283 | -3.57598 | 6142 ft | 195 kts | 183° |
| 2026-05-04 14:22 | 40.71955 | -3.57590 | 5887 ft | 188 kts | 184° |
| 2026-05-04 14:22 | 40.70659 | -3.57583 | 5637 ft | 184 kts | 184° |
| 2026-05-04 14:23 | 40.68136 | -3.57569 | 5145 ft | 178 kts | 184° |
| 2026-05-04 14:23 | 40.66911 | -3.57562 | 4925 ft | 175 kts | 184° |
| 2026-05-04 14:23 | 40.65688 | -3.57556 | 4680 ft | 176 kts | 184° |
| 2026-05-04 14:24 | 40.64473 | -3.57549 | 4431 ft | 173 kts | 184° |
| 2026-05-04 14:24 | 40.63268 | -3.57542 | 4208 ft | 172 kts | 184° |
| 2026-05-04 14:24 | 40.62081 | -3.57536 | 3972 ft | 170 kts | 184° |
| 2026-05-04 14:24 | 40.60897 | -3.57528 | 3738 ft | 170 kts | 184° |
| 2026-05-04 14:25 | 40.59733 | -3.57521 | 3511 ft | 165 kts | 184° |
| 2026-05-04 14:25 | 40.57485 | -3.57509 | 3064 ft | 157 kts | 184° |
| 2026-05-04 14:25 | 40.56413 | -3.57501 | 2845 ft | 151 kts | 185° |
| 2026-05-04 14:26 | 40.55377 | -3.57495 | 2654 ft | 146 kts | 186° |
| 2026-05-04 14:26 | 40.54393 | -3.57489 | 2465 ft | 138 kts | 185° |
| 2026-05-04 14:26 | 40.53445 | -3.57484 | 2274 ft | 137 kts | 186° |
| 2026-05-04 14:26 | 40.52495 | -3.57480 | 2095 ft | 136 kts | 186° |
| 2026-05-04 14:27 | 40.51871 | -3.57475 | 2009 ft | 132 kts | 185° |
| 2026-05-04 14:27 | 40.51065 | -3.57480 | 1998 ft | 95 kts | 179° |
| 2026-05-04 14:27 | 40.50573 | -3.57468 | 1997 ft | 45 kts | 180° |
| 2026-05-04 14:27 | 40.50249 | -3.57466 | 1995 ft | 33 kts | 179° |
| 2026-05-04 14:28 | 40.50106 | -3.57473 | 1994 ft | 25 kts | 188° |
| 2026-05-04 14:28 | 40.49976 | -3.57518 | 1995 ft | 19 kts | 204° |
| 2026-05-04 14:28 | 40.49862 | -3.57601 | 1994 ft | 19 kts | 208° |
| 2026-05-04 14:28 | 40.49755 | -3.57688 | 1995 ft | 17 kts | 228° |
| 2026-05-04 14:29 | 40.49675 | -3.57940 | 1993 ft | 17 kts | 181° |
| 2026-05-04 14:29 | 40.49410 | -3.57937 | 1993 ft | 21 kts | 180° |
| 2026-05-04 14:30 | 40.49261 | -3.57936 | 1993 ft | 22 kts | 180° |
| 2026-05-04 14:30 | 40.49105 | -3.57937 | 1993 ft | 23 kts | 178° |
| 2026-05-04 14:30 | 40.48780 | -3.57933 | 1997 ft | 23 kts | 180° |
| 2026-05-04 14:31 | 40.48628 | -3.57931 | 2001 ft | 21 kts | 175° |
| 2026-05-04 14:31 | 40.48399 | -3.57885 | 2003 ft | 15 kts | 170° |
| 2026-05-04 14:32 | 40.48201 | -3.57702 | 2000 ft | 21 kts | 143° |
| 2026-05-04 14:32 | 40.48079 | -3.57575 | 1997 ft | 24 kts | 142° |
| 2026-05-04 14:32 | 40.47961 | -3.57454 | 1994 ft | 22 kts | 142° |
| 2026-05-04 14:32 | 40.47833 | -3.57325 | 1990 ft | 25 kts | 142° |
| 2026-05-04 14:33 | 40.47689 | -3.57179 | 1987 ft | 27 kts | 142° |
| 2026-05-04 14:33 | 40.47555 | -3.57042 | 1983 ft | 25 kts | 142° |
| 2026-05-04 14:33 | 40.47412 | -3.56896 | 1983 ft | 27 kts | 142° |
| 2026-05-04 14:33 | 40.47276 | -3.56757 | 1977 ft | 23 kts | 142° |
| 2026-05-04 14:34 | 40.47162 | -3.56640 | 1975 ft | 20 kts | 143° |
| 2026-05-04 14:34 | 40.47028 | -3.56552 | 1969 ft | 22 kts | 164° |
| 2026-05-04 14:34 | 40.46914 | -3.56546 | 1970 ft | 10 kts | 192° |
| 2026-05-04 14:34 | 40.46880 | -3.56615 | 1967 ft | 8 kts | 246° |
| 2026-05-04 14:35 | 40.46833 | -3.56644 | 1966 ft | 8 kts | 185° |
| 2026-05-04 14:35 | 40.46771 | -3.56653 | 1965 ft | 10 kts | 198° |
| 2026-05-04 14:35 | 40.46787 | -3.56708 | 1966 ft | 7 kts | 323° |
| 2026-05-04 14:35 | 40.46830 | -3.56746 | 1967 ft | 6 kts | 327° |
| 2026-05-04 14:36 | 40.46852 | -3.56765 | 1967 ft | 2 kts | 327° |
| 2026-05-04 14:36 | 40.46860 | -3.56772 | 1968 ft | 1 kts | 327° |
| 2026-05-04 14:36 | 40.46861 | -3.56772 | 1968 ft | 0 kts | 327° |